sensor_id;sensor_type;location;lat;lon;timestamp;P1;durP1;ratioP1;P2;durP2;ratioP2
43150;SDS011;28755;51.478;5.702;2022-08-30T00:01:08;11.65;;;3.97;;
43150;SDS011;28755;51.478;5.702;2022-08-30T00:03:40;15.20;;;4.68;;
43150;SDS011;28755;51.478;5.702;2022-08-30T00:06:11;9.35;;;4.43;;
43150;SDS011;28755;51.478;5.702;2022-08-30T00:08:38;8.85;;;4.30;;
43150;SDS011;28755;51.478;5.702;2022-08-30T00:11:05;7.10;;;3.65;;
43150;SDS011;28755;51.478;5.702;2022-08-30T00:13:34;9.18;;;4.47;;
43150;SDS011;28755;51.478;5.702;2022-08-30T00:16:00;7.93;;;4.30;;
43150;SDS011;28755;51.478;5.702;2022-08-30T00:18:26;13.18;;;4.10;;
43150;SDS011;28755;51.478;5.702;2022-08-30T00:20:52;15.00;;;5.30;;
43150;SDS011;28755;51.478;5.702;2022-08-30T00:23:20;10.88;;;4.22;;
43150;SDS011;28755;51.478;5.702;2022-08-30T00:25:46;7.38;;;4.18;;
43150;SDS011;28755;51.478;5.702;2022-08-30T00:28:12;10.40;;;4.45;;
43150;SDS011;28755;51.478;5.702;2022-08-30T00:30:39;15.80;;;4.93;;
43150;SDS011;28755;51.478;5.702;2022-08-30T00:33:05;9.40;;;4.60;;
43150;SDS011;28755;51.478;5.702;2022-08-30T00:35:31;6.95;;;4.07;;
43150;SDS011;28755;51.478;5.702;2022-08-30T00:37:57;7.47;;;4.53;;
43150;SDS011;28755;51.478;5.702;2022-08-30T00:40:23;12.48;;;5.10;;
43150;SDS011;28755;51.478;5.702;2022-08-30T00:42:53;9.90;;;4.40;;
43150;SDS011;28755;51.478;5.702;2022-08-30T00:45:26;11.00;;;4.30;;
43150;SDS011;28755;51.478;5.702;2022-08-30T00:50:21;9.75;;;4.28;;
43150;SDS011;28755;51.478;5.702;2022-08-30T00:52:49;7.47;;;4.57;;
43150;SDS011;28755;51.478;5.702;2022-08-30T00:55:19;9.65;;;4.55;;
43150;SDS011;28755;51.478;5.702;2022-08-30T00:57:45;10.93;;;4.40;;
43150;SDS011;28755;51.478;5.702;2022-08-30T01:00:15;11.23;;;4.65;;
43150;SDS011;28755;51.478;5.702;2022-08-30T01:02:41;15.85;;;4.70;;
43150;SDS011;28755;51.478;5.702;2022-08-30T01:05:08;9.50;;;4.60;;
43150;SDS011;28755;51.478;5.702;2022-08-30T01:07:36;9.95;;;4.53;;
43150;SDS011;28755;51.478;5.702;2022-08-30T01:10:02;12.63;;;4.97;;
43150;SDS011;28755;51.478;5.702;2022-08-30T01:12:29;11.35;;;5.07;;
43150;SDS011;28755;51.478;5.702;2022-08-30T01:14:55;10.85;;;4.32;;
43150;SDS011;28755;51.478;5.702;2022-08-30T01:17:22;10.82;;;4.50;;
43150;SDS011;28755;51.478;5.702;2022-08-30T01:22:30;12.02;;;4.15;;
43150;SDS011;28755;51.478;5.702;2022-08-30T01:25:06;9.98;;;4.60;;
43150;SDS011;28755;51.478;5.702;2022-08-30T01:27:34;13.23;;;4.40;;
43150;SDS011;28755;51.478;5.702;2022-08-30T01:30:03;11.60;;;4.55;;
43150;SDS011;28755;51.478;5.702;2022-08-30T01:32:30;10.82;;;4.60;;
43150;SDS011;28755;51.478;5.702;2022-08-30T01:35:02;9.80;;;4.50;;
43150;SDS011;28755;51.478;5.702;2022-08-30T01:37:28;9.52;;;4.70;;
43150;SDS011;28755;51.478;5.702;2022-08-30T01:39:56;11.30;;;4.70;;
43150;SDS011;28755;51.478;5.702;2022-08-30T01:42:23;6.22;;;4.63;;
43150;SDS011;28755;51.478;5.702;2022-08-30T01:44:49;9.27;;;4.55;;
43150;SDS011;28755;51.478;5.702;2022-08-30T01:47:14;10.40;;;5.00;;
43150;SDS011;28755;51.478;5.702;2022-08-30T01:49:42;11.98;;;4.57;;
43150;SDS011;28755;51.478;5.702;2022-08-30T01:52:09;12.27;;;4.93;;
43150;SDS011;28755;51.478;5.702;2022-08-30T01:54:36;12.70;;;5.25;;
43150;SDS011;28755;51.478;5.702;2022-08-30T01:57:03;14.55;;;5.03;;
43150;SDS011;28755;51.478;5.702;2022-08-30T01:59:31;10.35;;;4.82;;
43150;SDS011;28755;51.478;5.702;2022-08-30T02:01:57;11.43;;;4.80;;
43150;SDS011;28755;51.478;5.702;2022-08-30T02:04:22;11.82;;;5.00;;
43150;SDS011;28755;51.478;5.702;2022-08-30T02:06:50;9.35;;;5.07;;
43150;SDS011;28755;51.478;5.702;2022-08-30T02:09:16;7.18;;;5.00;;
43150;SDS011;28755;51.478;5.702;2022-08-30T02:11:41;6.72;;;4.68;;
43150;SDS011;28755;51.478;5.702;2022-08-30T02:14:07;8.93;;;4.40;;
43150;SDS011;28755;51.478;5.702;2022-08-30T02:16:33;10.20;;;5.35;;
43150;SDS011;28755;51.478;5.702;2022-08-30T02:18:58;9.00;;;4.90;;
43150;SDS011;28755;51.478;5.702;2022-08-30T02:21:24;11.85;;;5.53;;
43150;SDS011;28755;51.478;5.702;2022-08-30T02:23:51;8.48;;;5.22;;
43150;SDS011;28755;51.478;5.702;2022-08-30T02:26:17;7.88;;;5.22;;
43150;SDS011;28755;51.478;5.702;2022-08-30T02:28:44;7.82;;;5.20;;
43150;SDS011;28755;51.478;5.702;2022-08-30T02:31:10;9.65;;;5.55;;
43150;SDS011;28755;51.478;5.702;2022-08-30T02:33:35;10.63;;;5.00;;
43150;SDS011;28755;51.478;5.702;2022-08-30T02:36:02;11.15;;;5.68;;
43150;SDS011;28755;51.478;5.702;2022-08-30T02:38:29;11.40;;;6.00;;
43150;SDS011;28755;51.478;5.702;2022-08-30T02:40:54;12.13;;;5.72;;
43150;SDS011;28755;51.478;5.702;2022-08-30T02:43:20;10.77;;;5.53;;
43150;SDS011;28755;51.478;5.702;2022-08-30T02:45:46;10.80;;;5.40;;
43150;SDS011;28755;51.478;5.702;2022-08-30T02:48:12;11.05;;;5.40;;
43150;SDS011;28755;51.478;5.702;2022-08-30T02:50:38;8.73;;;5.70;;
43150;SDS011;28755;51.478;5.702;2022-08-30T02:53:05;11.05;;;6.28;;
43150;SDS011;28755;51.478;5.702;2022-08-30T02:55:31;8.48;;;5.45;;
43150;SDS011;28755;51.478;5.702;2022-08-30T02:57:56;9.35;;;5.43;;
43150;SDS011;28755;51.478;5.702;2022-08-30T03:00:22;8.35;;;5.55;;
43150;SDS011;28755;51.478;5.702;2022-08-30T03:02:48;11.38;;;5.80;;
43150;SDS011;28755;51.478;5.702;2022-08-30T03:05:14;11.10;;;5.50;;
43150;SDS011;28755;51.478;5.702;2022-08-30T03:07:41;9.85;;;6.15;;
43150;SDS011;28755;51.478;5.702;2022-08-30T03:10:07;13.73;;;6.15;;
43150;SDS011;28755;51.478;5.702;2022-08-30T03:12:33;8.80;;;6.05;;
43150;SDS011;28755;51.478;5.702;2022-08-30T03:14:59;9.57;;;6.38;;
43150;SDS011;28755;51.478;5.702;2022-08-30T03:17:24;13.07;;;6.18;;
43150;SDS011;28755;51.478;5.702;2022-08-30T03:19:50;11.20;;;6.18;;
43150;SDS011;28755;51.478;5.702;2022-08-30T03:22:16;11.77;;;6.30;;
43150;SDS011;28755;51.478;5.702;2022-08-30T03:24:42;9.18;;;6.18;;
43150;SDS011;28755;51.478;5.702;2022-08-30T03:27:09;9.60;;;6.00;;
43150;SDS011;28755;51.478;5.702;2022-08-30T03:29:35;11.65;;;6.68;;
43150;SDS011;28755;51.478;5.702;2022-08-30T03:32:01;11.93;;;6.45;;
43150;SDS011;28755;51.478;5.702;2022-08-30T03:34:27;8.90;;;6.10;;
43150;SDS011;28755;51.478;5.702;2022-08-30T03:36:53;8.52;;;6.15;;
43150;SDS011;28755;51.478;5.702;2022-08-30T03:39:19;12.20;;;6.60;;
43150;SDS011;28755;51.478;5.702;2022-08-30T03:41:46;10.90;;;6.53;;
43150;SDS011;28755;51.478;5.702;2022-08-30T03:44:12;9.90;;;6.70;;
43150;SDS011;28755;51.478;5.702;2022-08-30T03:46:38;10.93;;;6.82;;
43150;SDS011;28755;51.478;5.702;2022-08-30T03:49:04;13.50;;;6.68;;
43150;SDS011;28755;51.478;5.702;2022-08-30T03:51:30;10.02;;;7.28;;
43150;SDS011;28755;51.478;5.702;2022-08-30T03:53:55;8.30;;;7.15;;
43150;SDS011;28755;51.478;5.702;2022-08-30T03:56:21;8.27;;;7.03;;
43150;SDS011;28755;51.478;5.702;2022-08-30T03:58:46;10.15;;;7.38;;
43150;SDS011;28755;51.478;5.702;2022-08-30T04:01:12;9.05;;;6.78;;
43150;SDS011;28755;51.478;5.702;2022-08-30T04:03:38;14.55;;;7.55;;
43150;SDS011;28755;51.478;5.702;2022-08-30T04:06:03;8.85;;;6.97;;
43150;SDS011;28755;51.478;5.702;2022-08-30T04:08:29;11.48;;;7.65;;
43150;SDS011;28755;51.478;5.702;2022-08-30T04:10:55;12.85;;;7.70;;
43150;SDS011;28755;51.478;5.702;2022-08-30T04:13:21;11.77;;;7.72;;
43150;SDS011;28755;51.478;5.702;2022-08-30T04:15:48;14.45;;;8.40;;
43150;SDS011;28755;51.478;5.702;2022-08-30T04:18:14;10.20;;;8.35;;
43150;SDS011;28755;51.478;5.702;2022-08-30T04:20:40;12.77;;;8.07;;
43150;SDS011;28755;51.478;5.702;2022-08-30T04:23:07;12.57;;;8.32;;
43150;SDS011;28755;51.478;5.702;2022-08-30T04:25:33;9.45;;;8.27;;
43150;SDS011;28755;51.478;5.702;2022-08-30T04:28:00;12.40;;;7.85;;
43150;SDS011;28755;51.478;5.702;2022-08-30T04:30:26;10.05;;;8.00;;
43150;SDS011;28755;51.478;5.702;2022-08-30T04:32:52;11.35;;;8.43;;
43150;SDS011;28755;51.478;5.702;2022-08-30T04:35:17;13.80;;;8.60;;
43150;SDS011;28755;51.478;5.702;2022-08-30T04:37:44;11.82;;;8.98;;
43150;SDS011;28755;51.478;5.702;2022-08-30T04:40:10;12.40;;;8.65;;
43150;SDS011;28755;51.478;5.702;2022-08-30T04:42:38;15.23;;;8.95;;
43150;SDS011;28755;51.478;5.702;2022-08-30T04:45:05;12.27;;;9.25;;
43150;SDS011;28755;51.478;5.702;2022-08-30T04:47:33;14.60;;;10.00;;
43150;SDS011;28755;51.478;5.702;2022-08-30T04:49:58;12.05;;;8.98;;
43150;SDS011;28755;51.478;5.702;2022-08-30T04:52:24;13.68;;;9.38;;
43150;SDS011;28755;51.478;5.702;2022-08-30T04:54:54;10.40;;;8.52;;
43150;SDS011;28755;51.478;5.702;2022-08-30T04:57:21;14.13;;;10.40;;
43150;SDS011;28755;51.478;5.702;2022-08-30T04:59:47;10.77;;;9.68;;
43150;SDS011;28755;51.478;5.702;2022-08-30T05:02:13;11.80;;;9.15;;
43150;SDS011;28755;51.478;5.702;2022-08-30T05:04:38;13.52;;;9.65;;
43150;SDS011;28755;51.478;5.702;2022-08-30T05:07:24;11.27;;;9.52;;
43150;SDS011;28755;51.478;5.702;2022-08-30T05:09:49;12.68;;;9.45;;
43150;SDS011;28755;51.478;5.702;2022-08-30T05:12:15;13.68;;;9.57;;
43150;SDS011;28755;51.478;5.702;2022-08-30T05:14:40;12.38;;;9.98;;
43150;SDS011;28755;51.478;5.702;2022-08-30T05:17:06;11.18;;;10.00;;
43150;SDS011;28755;51.478;5.702;2022-08-30T05:19:32;13.90;;;9.77;;
43150;SDS011;28755;51.478;5.702;2022-08-30T05:21:58;13.30;;;10.75;;
43150;SDS011;28755;51.478;5.702;2022-08-30T05:24:24;17.00;;;10.63;;
43150;SDS011;28755;51.478;5.702;2022-08-30T05:26:50;12.10;;;9.88;;
43150;SDS011;28755;51.478;5.702;2022-08-30T05:29:15;17.38;;;10.80;;
43150;SDS011;28755;51.478;5.702;2022-08-30T05:31:42;16.17;;;10.32;;
43150;SDS011;28755;51.478;5.702;2022-08-30T05:34:08;15.85;;;10.48;;
43150;SDS011;28755;51.478;5.702;2022-08-30T05:36:36;15.35;;;11.15;;
43150;SDS011;28755;51.478;5.702;2022-08-30T05:39:03;16.65;;;11.20;;
43150;SDS011;28755;51.478;5.702;2022-08-30T05:41:29;16.05;;;10.48;;
43150;SDS011;28755;51.478;5.702;2022-08-30T05:43:55;15.25;;;10.98;;
43150;SDS011;28755;51.478;5.702;2022-08-30T05:46:23;17.20;;;11.23;;
43150;SDS011;28755;51.478;5.702;2022-08-30T05:48:53;18.75;;;11.50;;
43150;SDS011;28755;51.478;5.702;2022-08-30T05:51:21;15.40;;;11.27;;
43150;SDS011;28755;51.478;5.702;2022-08-30T05:53:49;16.42;;;11.60;;
43150;SDS011;28755;51.478;5.702;2022-08-30T05:56:17;17.02;;;11.32;;
43150;SDS011;28755;51.478;5.702;2022-08-30T05:58:44;18.40;;;10.98;;
43150;SDS011;28755;51.478;5.702;2022-08-30T06:01:24;15.60;;;10.88;;
43150;SDS011;28755;51.478;5.702;2022-08-30T06:03:51;14.30;;;11.27;;
43150;SDS011;28755;51.478;5.702;2022-08-30T06:06:19;17.63;;;11.35;;
43150;SDS011;28755;51.478;5.702;2022-08-30T06:08:44;17.35;;;11.23;;
43150;SDS011;28755;51.478;5.702;2022-08-30T06:11:12;18.98;;;11.57;;
43150;SDS011;28755;51.478;5.702;2022-08-30T06:13:40;16.63;;;11.60;;
43150;SDS011;28755;51.478;5.702;2022-08-30T06:16:06;14.95;;;11.70;;
43150;SDS011;28755;51.478;5.702;2022-08-30T06:18:34;18.42;;;10.68;;
43150;SDS011;28755;51.478;5.702;2022-08-30T06:21:00;14.88;;;10.45;;
43150;SDS011;28755;51.478;5.702;2022-08-30T06:23:25;12.20;;;10.43;;
43150;SDS011;28755;51.478;5.702;2022-08-30T06:25:52;18.23;;;11.23;;
43150;SDS011;28755;51.478;5.702;2022-08-30T06:28:18;12.55;;;9.80;;
43150;SDS011;28755;51.478;5.702;2022-08-30T06:30:44;16.67;;;10.35;;
43150;SDS011;28755;51.478;5.702;2022-08-30T06:33:10;13.32;;;10.00;;
43150;SDS011;28755;51.478;5.702;2022-08-30T06:35:36;12.68;;;10.05;;
43150;SDS011;28755;51.478;5.702;2022-08-30T06:38:01;16.60;;;9.25;;
43150;SDS011;28755;51.478;5.702;2022-08-30T06:40:27;15.90;;;9.93;;
43150;SDS011;28755;51.478;5.702;2022-08-30T06:42:53;12.60;;;9.57;;
43150;SDS011;28755;51.478;5.702;2022-08-30T06:45:19;13.00;;;8.95;;
43150;SDS011;28755;51.478;5.702;2022-08-30T06:47:46;13.27;;;9.63;;
43150;SDS011;28755;51.478;5.702;2022-08-30T06:50:12;15.13;;;9.35;;
43150;SDS011;28755;51.478;5.702;2022-08-30T06:52:39;10.38;;;9.10;;
43150;SDS011;28755;51.478;5.702;2022-08-30T06:55:06;16.60;;;9.20;;
43150;SDS011;28755;51.478;5.702;2022-08-30T06:57:32;16.75;;;8.85;;
43150;SDS011;28755;51.478;5.702;2022-08-30T06:59:58;14.45;;;9.20;;
43150;SDS011;28755;51.478;5.702;2022-08-30T07:02:24;13.82;;;9.18;;
43150;SDS011;28755;51.478;5.702;2022-08-30T07:04:50;12.95;;;8.75;;
43150;SDS011;28755;51.478;5.702;2022-08-30T07:07:15;12.05;;;9.10;;
43150;SDS011;28755;51.478;5.702;2022-08-30T07:09:41;11.98;;;8.60;;
43150;SDS011;28755;51.478;5.702;2022-08-30T07:12:10;13.07;;;8.07;;
43150;SDS011;28755;51.478;5.702;2022-08-30T07:14:37;11.80;;;8.63;;
43150;SDS011;28755;51.478;5.702;2022-08-30T07:17:03;10.90;;;8.30;;
43150;SDS011;28755;51.478;5.702;2022-08-30T07:19:49;15.77;;;7.80;;
43150;SDS011;28755;51.478;5.702;2022-08-30T07:22:15;9.90;;;7.68;;
43150;SDS011;28755;51.478;5.702;2022-08-30T07:24:41;8.80;;;6.75;;
43150;SDS011;28755;51.478;5.702;2022-08-30T07:27:07;12.23;;;7.40;;
43150;SDS011;28755;51.478;5.702;2022-08-30T07:29:33;12.27;;;7.40;;
43150;SDS011;28755;51.478;5.702;2022-08-30T07:31:58;10.80;;;7.32;;
43150;SDS011;28755;51.478;5.702;2022-08-30T07:34:24;9.77;;;6.75;;
43150;SDS011;28755;51.478;5.702;2022-08-30T07:36:50;16.70;;;7.07;;
43150;SDS011;28755;51.478;5.702;2022-08-30T07:39:16;8.00;;;6.15;;
43150;SDS011;28755;51.478;5.702;2022-08-30T07:41:42;10.57;;;6.82;;
43150;SDS011;28755;51.478;5.702;2022-08-30T07:44:08;7.72;;;6.63;;
43150;SDS011;28755;51.478;5.702;2022-08-30T07:46:35;12.13;;;6.30;;
43150;SDS011;28755;51.478;5.702;2022-08-30T07:49:02;7.72;;;5.85;;
43150;SDS011;28755;51.478;5.702;2022-08-30T07:51:28;10.05;;;6.40;;
43150;SDS011;28755;51.478;5.702;2022-08-30T07:53:54;6.88;;;5.68;;
43150;SDS011;28755;51.478;5.702;2022-08-30T07:56:21;14.02;;;6.30;;
43150;SDS011;28755;51.478;5.702;2022-08-30T07:58:48;7.82;;;5.85;;
43150;SDS011;28755;51.478;5.702;2022-08-30T08:01:14;9.60;;;5.70;;
43150;SDS011;28755;51.478;5.702;2022-08-30T08:03:41;9.98;;;6.07;;
43150;SDS011;28755;51.478;5.702;2022-08-30T08:06:07;9.50;;;5.45;;
43150;SDS011;28755;51.478;5.702;2022-08-30T08:08:37;10.45;;;5.80;;
43150;SDS011;28755;51.478;5.702;2022-08-30T08:11:14;10.60;;;5.22;;
43150;SDS011;28755;51.478;5.702;2022-08-30T08:13:43;7.50;;;5.20;;
43150;SDS011;28755;51.478;5.702;2022-08-30T08:16:09;9.73;;;5.05;;
43150;SDS011;28755;51.478;5.702;2022-08-30T08:18:35;9.27;;;4.95;;
43150;SDS011;28755;51.478;5.702;2022-08-30T08:21:01;8.40;;;4.88;;
43150;SDS011;28755;51.478;5.702;2022-08-30T08:23:26;9.40;;;4.32;;
43150;SDS011;28755;51.478;5.702;2022-08-30T08:25:52;7.47;;;4.65;;
43150;SDS011;28755;51.478;5.702;2022-08-30T08:28:18;9.25;;;4.70;;
43150;SDS011;28755;51.478;5.702;2022-08-30T08:30:44;8.77;;;4.50;;
43150;SDS011;28755;51.478;5.702;2022-08-30T08:33:11;8.20;;;4.70;;
43150;SDS011;28755;51.478;5.702;2022-08-30T08:35:39;11.20;;;4.55;;
43150;SDS011;28755;51.478;5.702;2022-08-30T08:38:05;10.15;;;4.30;;
43150;SDS011;28755;51.478;5.702;2022-08-30T08:40:33;11.13;;;4.00;;
43150;SDS011;28755;51.478;5.702;2022-08-30T08:43:11;7.55;;;3.65;;
43150;SDS011;28755;51.478;5.702;2022-08-30T08:45:50;9.48;;;3.53;;
43150;SDS011;28755;51.478;5.702;2022-08-30T08:48:25;3.88;;;3.22;;
43150;SDS011;28755;51.478;5.702;2022-08-30T08:50:55;7.07;;;3.60;;
43150;SDS011;28755;51.478;5.702;2022-08-30T08:53:39;6.88;;;3.50;;
43150;SDS011;28755;51.478;5.702;2022-08-30T08:56:15;9.90;;;3.03;;
43150;SDS011;28755;51.478;5.702;2022-08-30T08:58:48;6.22;;;3.08;;
43150;SDS011;28755;51.478;5.702;2022-08-30T09:01:18;8.82;;;3.20;;
43150;SDS011;28755;51.478;5.702;2022-08-30T09:03:49;10.95;;;3.20;;
43150;SDS011;28755;51.478;5.702;2022-08-30T09:09:03;4.78;;;3.15;;
43150;SDS011;28755;51.478;5.702;2022-08-30T09:11:29;8.35;;;3.20;;
43150;SDS011;28755;51.478;5.702;2022-08-30T09:13:57;4.53;;;2.53;;
43150;SDS011;28755;51.478;5.702;2022-08-30T09:16:57;4.43;;;2.78;;
43150;SDS011;28755;51.478;5.702;2022-08-30T09:24:52;7.22;;;2.53;;
43150;SDS011;28755;51.478;5.702;2022-08-30T09:27:34;6.15;;;2.10;;
43150;SDS011;28755;51.478;5.702;2022-08-30T09:30:06;9.27;;;1.90;;
43150;SDS011;28755;51.478;5.702;2022-08-30T09:32:39;4.28;;;1.90;;
43150;SDS011;28755;51.478;5.702;2022-08-30T09:35:11;6.82;;;1.85;;
43150;SDS011;28755;51.478;5.702;2022-08-30T09:37:46;10.98;;;1.70;;
43150;SDS011;28755;51.478;5.702;2022-08-30T09:40:25;5.28;;;1.80;;
43150;SDS011;28755;51.478;5.702;2022-08-30T09:45:42;2.58;;;1.65;;
43150;SDS011;28755;51.478;5.702;2022-08-30T09:48:21;8.95;;;1.70;;
43150;SDS011;28755;51.478;5.702;2022-08-30T09:50:52;8.43;;;1.73;;
43150;SDS011;28755;51.478;5.702;2022-08-30T09:53:35;8.40;;;2.25;;
43150;SDS011;28755;51.478;5.702;2022-08-30T10:02:28;7.70;;;1.38;;
43150;SDS011;28755;51.478;5.702;2022-08-30T10:04:55;3.47;;;1.27;;
43150;SDS011;28755;51.478;5.702;2022-08-30T10:07:31;3.20;;;1.30;;
43150;SDS011;28755;51.478;5.702;2022-08-30T10:10:08;10.05;;;1.58;;
43150;SDS011;28755;51.478;5.702;2022-08-30T10:12:54;5.15;;;1.33;;
43150;SDS011;28755;51.478;5.702;2022-08-30T10:15:47;4.85;;;1.23;;
43150;SDS011;28755;51.478;5.702;2022-08-30T10:18:25;6.72;;;1.30;;
43150;SDS011;28755;51.478;5.702;2022-08-30T10:21:16;7.85;;;1.27;;
43150;SDS011;28755;51.478;5.702;2022-08-30T10:23:51;5.47;;;1.30;;
43150;SDS011;28755;51.478;5.702;2022-08-30T10:31:26;3.20;;;1.38;;
43150;SDS011;28755;51.478;5.702;2022-08-30T10:34:00;5.78;;;1.20;;
43150;SDS011;28755;51.478;5.702;2022-08-30T10:36:32;4.93;;;1.48;;
43150;SDS011;28755;51.478;5.702;2022-08-30T10:39:04;6.78;;;1.20;;
43150;SDS011;28755;51.478;5.702;2022-08-30T10:41:34;6.17;;;1.57;;
43150;SDS011;28755;51.478;5.702;2022-08-30T10:44:18;5.68;;;1.30;;
43150;SDS011;28755;51.478;5.702;2022-08-30T10:49:30;4.18;;;1.20;;
43150;SDS011;28755;51.478;5.702;2022-08-30T10:52:22;2.55;;;1.30;;
43150;SDS011;28755;51.478;5.702;2022-08-30T10:57:35;6.13;;;1.08;;
43150;SDS011;28755;51.478;5.702;2022-08-30T11:00:07;5.93;;;1.45;;
43150;SDS011;28755;51.478;5.702;2022-08-30T11:05:58;7.80;;;1.85;;
43150;SDS011;28755;51.478;5.702;2022-08-30T11:14:00;5.65;;;1.20;;
43150;SDS011;28755;51.478;5.702;2022-08-30T11:16:44;4.10;;;1.25;;
43150;SDS011;28755;51.478;5.702;2022-08-30T11:19:16;12.27;;;1.67;;
43150;SDS011;28755;51.478;5.702;2022-08-30T11:21:52;3.88;;;1.10;;
43150;SDS011;28755;51.478;5.702;2022-08-30T11:24:57;5.82;;;1.40;;
43150;SDS011;28755;51.478;5.702;2022-08-30T11:27:48;2.75;;;1.15;;
43150;SDS011;28755;51.478;5.702;2022-08-30T11:43:48;4.93;;;1.05;;
43150;SDS011;28755;51.478;5.702;2022-08-30T11:49:05;5.38;;;1.35;;
43150;SDS011;28755;51.478;5.702;2022-08-30T11:54:56;7.05;;;1.75;;
43150;SDS011;28755;51.478;5.702;2022-08-30T11:57:30;4.53;;;1.05;;
43150;SDS011;28755;51.478;5.702;2022-08-30T12:06:08;5.50;;;1.35;;
43150;SDS011;28755;51.478;5.702;2022-08-30T12:16:08;5.53;;;1.55;;
43150;SDS011;28755;51.478;5.702;2022-08-30T12:19:08;5.07;;;1.38;;
43150;SDS011;28755;51.478;5.702;2022-08-30T12:21:39;8.33;;;1.60;;
43150;SDS011;28755;51.478;5.702;2022-08-30T12:26:46;6.50;;;1.70;;
43150;SDS011;28755;51.478;5.702;2022-08-30T12:29:20;6.55;;;1.60;;
43150;SDS011;28755;51.478;5.702;2022-08-30T12:34:26;3.67;;;1.50;;
43150;SDS011;28755;51.478;5.702;2022-08-30T12:36:55;6.03;;;1.48;;
43150;SDS011;28755;51.478;5.702;2022-08-30T12:39:30;9.88;;;1.63;;
43150;SDS011;28755;51.478;5.702;2022-08-30T12:42:11;4.20;;;1.52;;
43150;SDS011;28755;51.478;5.702;2022-08-30T12:44:43;2.88;;;1.30;;
43150;SDS011;28755;51.478;5.702;2022-08-30T12:47:10;6.88;;;1.60;;
43150;SDS011;28755;51.478;5.702;2022-08-30T12:49:38;5.15;;;1.33;;
43150;SDS011;28755;51.478;5.702;2022-08-30T12:54:40;5.70;;;1.52;;
43150;SDS011;28755;51.478;5.702;2022-08-30T12:57:05;6.00;;;1.55;;
43150;SDS011;28755;51.478;5.702;2022-08-30T12:59:45;4.13;;;1.40;;
43150;SDS011;28755;51.478;5.702;2022-08-30T13:04:46;4.38;;;1.50;;
43150;SDS011;28755;51.478;5.702;2022-08-30T13:10:14;4.18;;;1.50;;
43150;SDS011;28755;51.478;5.702;2022-08-30T13:12:56;4.57;;;1.42;;
43150;SDS011;28755;51.478;5.702;2022-08-30T13:15:29;3.60;;;1.35;;
43150;SDS011;28755;51.478;5.702;2022-08-30T13:18:09;4.20;;;1.60;;
43150;SDS011;28755;51.478;5.702;2022-08-30T13:23:49;6.35;;;1.55;;
43150;SDS011;28755;51.478;5.702;2022-08-30T13:26:16;4.85;;;1.27;;
43150;SDS011;28755;51.478;5.702;2022-08-30T13:28:44;2.40;;;1.30;;
43150;SDS011;28755;51.478;5.702;2022-08-30T13:31:10;5.57;;;1.27;;
43150;SDS011;28755;51.478;5.702;2022-08-30T13:33:36;6.85;;;1.50;;
43150;SDS011;28755;51.478;5.702;2022-08-30T13:36:02;4.60;;;1.23;;
43150;SDS011;28755;51.478;5.702;2022-08-30T13:38:28;5.35;;;1.30;;
43150;SDS011;28755;51.478;5.702;2022-08-30T13:40:53;8.10;;;1.40;;
43150;SDS011;28755;51.478;5.702;2022-08-30T13:43:19;5.63;;;1.55;;
43150;SDS011;28755;51.478;5.702;2022-08-30T13:45:44;5.68;;;1.27;;
43150;SDS011;28755;51.478;5.702;2022-08-30T13:48:10;6.95;;;1.45;;
43150;SDS011;28755;51.478;5.702;2022-08-30T13:50:38;2.72;;;1.30;;
43150;SDS011;28755;51.478;5.702;2022-08-30T13:53:04;6.20;;;1.58;;
43150;SDS011;28755;51.478;5.702;2022-08-30T13:55:29;10.25;;;1.40;;
43150;SDS011;28755;51.478;5.702;2022-08-30T13:57:55;12.20;;;1.58;;
43150;SDS011;28755;51.478;5.702;2022-08-30T14:00:21;6.45;;;1.42;;
43150;SDS011;28755;51.478;5.702;2022-08-30T14:02:49;65.85;;;3.95;;
43150;SDS011;28755;51.478;5.702;2022-08-30T14:05:16;4.93;;;1.40;;
43150;SDS011;28755;51.478;5.702;2022-08-30T14:07:42;3.05;;;1.40;;
43150;SDS011;28755;51.478;5.702;2022-08-30T14:10:07;10.25;;;1.40;;
43150;SDS011;28755;51.478;5.702;2022-08-30T14:12:33;4.57;;;1.20;;
43150;SDS011;28755;51.478;5.702;2022-08-30T14:14:59;7.43;;;1.50;;
43150;SDS011;28755;51.478;5.702;2022-08-30T14:17:26;5.07;;;1.63;;
43150;SDS011;28755;51.478;5.702;2022-08-30T14:19:54;6.13;;;1.65;;
43150;SDS011;28755;51.478;5.702;2022-08-30T14:22:20;13.73;;;1.45;;
43150;SDS011;28755;51.478;5.702;2022-08-30T14:24:45;14.60;;;8.68;;
43150;SDS011;28755;51.478;5.702;2022-08-30T14:27:11;7.40;;;4.30;;
43150;SDS011;28755;51.478;5.702;2022-08-30T14:29:36;5.75;;;1.48;;
43150;SDS011;28755;51.478;5.702;2022-08-30T14:32:02;6.32;;;2.03;;
43150;SDS011;28755;51.478;5.702;2022-08-30T14:34:28;9.52;;;4.68;;
43150;SDS011;28755;51.478;5.702;2022-08-30T14:36:53;9.20;;;1.40;;
43150;SDS011;28755;51.478;5.702;2022-08-30T14:39:20;7.80;;;1.90;;
43150;SDS011;28755;51.478;5.702;2022-08-30T14:41:47;5.47;;;1.50;;
43150;SDS011;28755;51.478;5.702;2022-08-30T14:44:15;6.13;;;1.77;;
43150;SDS011;28755;51.478;5.702;2022-08-30T14:46:42;5.03;;;1.40;;
43150;SDS011;28755;51.478;5.702;2022-08-30T14:49:08;5.82;;;1.30;;
43150;SDS011;28755;51.478;5.702;2022-08-30T14:51:34;4.18;;;1.30;;
43150;SDS011;28755;51.478;5.702;2022-08-30T14:54:00;2.33;;;1.30;;
43150;SDS011;28755;51.478;5.702;2022-08-30T14:56:26;7.18;;;1.40;;
43150;SDS011;28755;51.478;5.702;2022-08-30T14:58:52;5.57;;;1.60;;
43150;SDS011;28755;51.478;5.702;2022-08-30T15:01:24;7.97;;;1.63;;
43150;SDS011;28755;51.478;5.702;2022-08-30T15:03:49;4.10;;;1.30;;
43150;SDS011;28755;51.478;5.702;2022-08-30T15:06:15;4.07;;;1.30;;
43150;SDS011;28755;51.478;5.702;2022-08-30T15:08:41;4.45;;;1.33;;
43150;SDS011;28755;51.478;5.702;2022-08-30T15:11:10;6.15;;;1.50;;
43150;SDS011;28755;51.478;5.702;2022-08-30T15:13:38;6.47;;;1.58;;
43150;SDS011;28755;51.478;5.702;2022-08-30T15:16:17;2.33;;;1.10;;
43150;SDS011;28755;51.478;5.702;2022-08-30T15:18:57;6.68;;;1.40;;
43150;SDS011;28755;51.478;5.702;2022-08-30T15:21:24;4.65;;;1.85;;
43150;SDS011;28755;51.478;5.702;2022-08-30T15:23:58;5.72;;;1.70;;
43150;SDS011;28755;51.478;5.702;2022-08-30T15:26:24;5.15;;;1.20;;
43150;SDS011;28755;51.478;5.702;2022-08-30T15:28:50;3.72;;;1.25;;
43150;SDS011;28755;51.478;5.702;2022-08-30T15:31:20;4.43;;;1.20;;
43150;SDS011;28755;51.478;5.702;2022-08-30T15:33:48;2.88;;;1.30;;
43150;SDS011;28755;51.478;5.702;2022-08-30T15:36:13;3.15;;;1.40;;
43150;SDS011;28755;51.478;5.702;2022-08-30T15:38:39;7.63;;;1.40;;
43150;SDS011;28755;51.478;5.702;2022-08-30T15:41:07;3.50;;;1.40;;
43150;SDS011;28755;51.478;5.702;2022-08-30T15:43:35;12.15;;;1.80;;
43150;SDS011;28755;51.478;5.702;2022-08-30T15:46:21;4.75;;;1.50;;
43150;SDS011;28755;51.478;5.702;2022-08-30T15:48:49;4.32;;;1.25;;
43150;SDS011;28755;51.478;5.702;2022-08-30T15:51:19;2.50;;;1.35;;
43150;SDS011;28755;51.478;5.702;2022-08-30T15:53:44;4.28;;;1.60;;
43150;SDS011;28755;51.478;5.702;2022-08-30T15:56:11;5.78;;;1.48;;
43150;SDS011;28755;51.478;5.702;2022-08-30T15:58:38;7.35;;;1.52;;
43150;SDS011;28755;51.478;5.702;2022-08-30T16:01:03;4.18;;;1.50;;
43150;SDS011;28755;51.478;5.702;2022-08-30T16:03:30;5.28;;;1.48;;
43150;SDS011;28755;51.478;5.702;2022-08-30T16:05:57;7.90;;;1.55;;
43150;SDS011;28755;51.478;5.702;2022-08-30T16:08:22;3.83;;;1.33;;
43150;SDS011;28755;51.478;5.702;2022-08-30T16:10:48;5.78;;;1.70;;
43150;SDS011;28755;51.478;5.702;2022-08-30T16:13:14;7.20;;;1.55;;
43150;SDS011;28755;51.478;5.702;2022-08-30T16:15:40;7.20;;;1.42;;
43150;SDS011;28755;51.478;5.702;2022-08-30T16:18:08;6.22;;;1.20;;
43150;SDS011;28755;51.478;5.702;2022-08-30T16:20:34;5.00;;;1.58;;